createdAt,value
2024-01-29T00:00:21.143Z,22.30
2024-01-29T00:02:57.910Z,23.70
2024-01-29T00:05:34.855Z,20.90
2024-01-29T00:08:13.524Z,20.80
2024-01-29T00:10:50.779Z,23.00
2024-01-29T00:13:28.393Z,23.20
2024-01-29T00:16:05.333Z,22.20
2024-01-29T00:18:42.473Z,21.30
2024-01-29T00:21:20.251Z,20.60
2024-01-29T00:23:57.857Z,21.10
2024-01-29T00:26:35.257Z,20.60
2024-01-29T00:29:11.924Z,18.60
2024-01-29T00:31:48.962Z,18.80
2024-01-29T00:34:26.528Z,19.80
2024-01-29T00:37:03.478Z,16.70
2024-01-29T00:39:40.216Z,18.80
2024-01-29T00:42:17.049Z,20.50
2024-01-29T00:44:54.013Z,20.80
2024-01-29T00:47:31.230Z,17.20
2024-01-29T00:50:09.847Z,19.40
2024-01-29T00:52:46.790Z,18.80
2024-01-29T00:55:24.823Z,18.40
2024-01-29T00:58:02.703Z,20.00
2024-01-29T01:00:40.139Z,17.20
2024-01-29T01:03:17.682Z,21.70
2024-01-29T01:05:55.733Z,20.60
2024-01-29T01:08:32.905Z,21.40
2024-01-29T01:11:10.952Z,20.60
2024-01-29T01:13:48.199Z,21.00
2024-01-29T01:16:24.963Z,19.10
2024-01-29T01:19:01.795Z,20.90
2024-01-29T01:21:38.990Z,20.90
2024-01-29T01:24:17.910Z,19.80
2024-01-29T01:26:54.268Z,19.40
2024-01-29T01:29:31.183Z,19.20
2024-01-29T01:32:09.381Z,18.10
2024-01-29T01:34:46.390Z,18.80
2024-01-29T01:37:23.897Z,19.20
2024-01-29T01:40:01.373Z,18.60
2024-01-29T01:42:38.692Z,16.60
2024-01-29T01:45:19.947Z,17.50
2024-01-29T01:47:57.525Z,18.80
2024-01-29T01:50:35.132Z,21.70
2024-01-29T01:53:11.406Z,21.80
2024-01-29T01:55:48.943Z,20.90
2024-01-29T01:58:26.936Z,23.10
2024-01-29T02:01:05.001Z,21.40
2024-01-29T02:03:41.773Z,21.50
2024-01-29T02:06:19.009Z,19.20
2024-01-29T02:08:58.051Z,20.50
2024-01-29T02:11:35.024Z,22.60
2024-01-29T02:14:12.069Z,21.40
2024-01-29T02:16:48.842Z,19.60
2024-01-29T02:19:26.602Z,17.60
2024-01-29T02:22:03.883Z,18.20
2024-01-29T02:24:40.432Z,17.00
2024-01-29T02:27:16.835Z,18.00
2024-01-29T02:29:53.802Z,17.00
2024-01-29T02:32:29.879Z,19.90
2024-01-29T02:35:07.653Z,19.20
2024-01-29T02:37:45.138Z,18.70
2024-01-29T02:40:22.168Z,18.30
2024-01-29T02:42:59.721Z,14.90
2024-01-29T02:45:36.888Z,17.60
2024-01-29T02:48:16.466Z,18.60
2024-01-29T02:50:53.107Z,21.30
2024-01-29T02:53:29.872Z,20.70
2024-01-29T02:56:06.430Z,19.60
2024-01-29T02:58:42.648Z,20.90
2024-01-29T03:01:21.292Z,19.40
2024-01-29T03:03:58.371Z,20.60
2024-01-29T03:06:35.505Z,20.40
2024-01-29T03:09:12.595Z,21.80
2024-01-29T03:11:49.622Z,19.40
2024-01-29T03:14:26.479Z,20.10
2024-01-29T03:17:03.667Z,21.00
2024-01-29T03:19:40.620Z,19.80
2024-01-29T03:22:17.508Z,20.40
2024-01-29T03:24:54.467Z,17.40
2024-01-29T03:27:31.280Z,16.40
2024-01-29T03:30:11.913Z,16.60
2024-01-29T03:32:49.930Z,19.20
2024-01-29T03:35:26.571Z,18.20
2024-01-29T03:38:04.170Z,18.70
2024-01-29T03:40:41.490Z,19.80
2024-01-29T03:43:18.382Z,18.00
2024-01-29T03:45:55.704Z,19.30
2024-01-29T03:48:33.817Z,19.20
2024-01-29T03:51:11.084Z,20.10
2024-01-29T03:53:47.976Z,18.30
2024-01-29T03:56:25.339Z,19.80
2024-01-29T03:59:02.654Z,17.50
2024-01-29T04:01:39.632Z,17.60
2024-01-29T04:04:16.531Z,20.00
2024-01-29T04:06:53.031Z,18.20
2024-01-29T04:09:30.128Z,18.70
2024-01-29T04:12:08.336Z,18.90
2024-01-29T04:14:45.620Z,17.40
2024-01-29T04:17:22.735Z,18.30
2024-01-29T04:19:59.502Z,18.10
2024-01-29T04:22:36.422Z,17.70
2024-01-29T04:25:15.499Z,18.70
2024-01-29T04:27:52.764Z,19.10
2024-01-29T04:30:30.232Z,17.80
2024-01-29T04:33:07.234Z,18.50
2024-01-29T04:35:44.110Z,17.30
2024-01-29T04:38:21.211Z,18.00
2024-01-29T04:40:58.092Z,17.20
2024-01-29T04:43:35.317Z,17.70
2024-01-29T04:46:12.675Z,19.70
2024-01-29T04:48:49.003Z,16.30
2024-01-29T04:51:25.749Z,18.50
2024-01-29T04:54:03.350Z,18.70
2024-01-29T04:56:39.875Z,19.30
2024-01-29T04:59:16.209Z,18.20
2024-01-29T05:01:53.203Z,18.70
2024-01-29T05:04:30.589Z,17.20
2024-01-29T05:07:08.581Z,17.70
2024-01-29T05:09:45.555Z,18.30
2024-01-29T05:12:22.571Z,17.90
2024-01-29T05:15:00.161Z,19.70
2024-01-29T05:17:37.342Z,19.60
2024-01-29T05:20:18.640Z,18.40
2024-01-29T05:22:54.843Z,18.70
2024-01-29T05:25:31.239Z,17.20
2024-01-29T05:28:10.746Z,18.00
2024-01-29T05:30:47.577Z,20.00
2024-01-29T05:33:26.848Z,19.60
2024-01-29T05:36:04.492Z,17.40
2024-01-29T05:38:41.618Z,17.20
2024-01-29T05:41:18.035Z,20.00
2024-01-29T05:43:55.281Z,19.50
2024-01-29T05:46:32.387Z,20.70
2024-01-29T05:49:10.000Z,19.70
2024-01-29T05:51:48.623Z,20.20
2024-01-29T05:54:26.219Z,19.10
2024-01-29T05:57:02.982Z,18.90
2024-01-29T05:59:39.208Z,19.40
2024-01-29T06:02:16.335Z,18.30
2024-01-29T06:04:53.588Z,18.80
2024-01-29T06:07:30.341Z,18.80
2024-01-29T06:10:08.967Z,17.70
2024-01-29T06:12:46.087Z,20.60
2024-01-29T06:15:23.314Z,17.80
2024-01-29T06:17:59.739Z,18.50
2024-01-29T06:20:36.965Z,19.20
2024-01-29T06:23:16.310Z,19.80
2024-01-29T06:25:53.202Z,18.90
2024-01-29T06:28:29.514Z,18.50
2024-01-29T06:31:08.556Z,16.80
2024-01-29T06:33:44.916Z,15.40
2024-01-29T06:36:26.514Z,17.10
2024-01-29T06:39:03.685Z,17.30
2024-01-29T06:41:40.410Z,17.70
2024-01-29T06:44:18.234Z,17.20
2024-01-29T06:46:55.058Z,17.50
2024-01-29T06:49:36.962Z,16.10
2024-01-29T06:52:16.902Z,17.10
2024-01-29T06:54:55.309Z,17.90
2024-01-29T06:57:31.205Z,16.70
2024-01-29T07:00:15.367Z,17.30
2024-01-29T07:02:52.652Z,18.60
2024-01-29T07:05:30.915Z,17.60
2024-01-29T07:08:08.518Z,16.80
2024-01-29T07:10:45.116Z,17.30
2024-01-29T07:13:21.987Z,18.00
2024-01-29T07:15:59.835Z,18.10
2024-01-29T07:18:37.850Z,15.60
2024-01-29T07:21:17.881Z,16.90
2024-01-29T07:23:54.336Z,16.00
2024-01-29T07:26:31.283Z,16.40
2024-01-29T07:29:08.102Z,16.40
2024-01-29T07:31:45.580Z,14.00
2024-01-29T07:34:22.731Z,16.40
2024-01-29T07:36:59.497Z,14.80
2024-01-29T07:39:36.108Z,14.10
2024-01-29T07:42:14.008Z,16.60
2024-01-29T07:44:49.896Z,16.20
2024-01-29T07:47:27.207Z,17.00
2024-01-29T07:50:04.247Z,17.10
2024-01-29T07:52:41.141Z,16.40
2024-01-29T07:55:18.409Z,20.40
2024-01-29T07:57:55.666Z,18.00
2024-01-29T08:00:33.320Z,18.30
2024-01-29T08:03:10.832Z,18.90
2024-01-29T08:05:47.692Z,18.70
2024-01-29T08:08:25.146Z,16.40
2024-01-29T08:11:03.888Z,15.40
2024-01-29T08:13:40.445Z,19.00
2024-01-29T08:16:17.279Z,15.60
2024-01-29T08:18:54.565Z,20.20
2024-01-29T08:21:30.898Z,16.70
2024-01-29T08:24:07.629Z,19.50
2024-01-29T08:26:44.701Z,20.10
2024-01-29T08:29:21.701Z,18.60
2024-01-29T08:31:58.508Z,22.30
2024-01-29T08:34:34.908Z,19.40
2024-01-29T08:37:12.335Z,21.00
2024-01-29T08:39:49.998Z,19.20
2024-01-29T08:42:27.478Z,20.70
2024-01-29T08:45:04.572Z,18.20
2024-01-29T08:47:42.701Z,19.80
2024-01-29T08:50:21.066Z,20.30
2024-01-29T08:52:59.393Z,18.80
2024-01-29T08:55:37.111Z,21.90
2024-01-29T08:58:14.383Z,22.90
2024-01-29T09:00:55.289Z,20.20
2024-01-29T09:03:32.817Z,22.80
2024-01-29T09:06:10.633Z,21.50
2024-01-29T09:08:50.205Z,23.20
2024-01-29T09:11:27.062Z,22.00
2024-01-29T09:14:03.549Z,21.70
2024-01-29T09:16:40.371Z,21.80
2024-01-29T09:19:17.683Z,22.30
2024-01-29T09:21:57.992Z,23.40
2024-01-29T09:24:34.754Z,23.40
2024-01-29T09:27:11.900Z,21.40
2024-01-29T09:29:48.621Z,20.90
2024-01-29T09:32:25.583Z,19.60
2024-01-29T09:35:02.898Z,22.30
2024-01-29T09:37:41.155Z,22.50
2024-01-29T09:40:22.823Z,22.00
2024-01-29T09:43:08.923Z,22.70
2024-01-29T09:45:46.844Z,23.80
2024-01-29T09:48:24.707Z,21.30
2024-01-29T09:51:03.747Z,19.40
2024-01-29T09:53:43.196Z,22.50
2024-01-29T09:56:20.637Z,22.20
2024-01-29T09:58:57.196Z,21.70
2024-01-29T10:01:34.911Z,20.10
2024-01-29T10:04:12.298Z,19.80
2024-01-29T10:06:49.360Z,22.80
2024-01-29T10:09:26.975Z,22.90
2024-01-29T10:12:04.392Z,24.00
2024-01-29T10:14:42.758Z,24.30
2024-01-29T10:17:19.700Z,24.00
2024-01-29T10:19:57.561Z,24.10
2024-01-29T10:22:34.955Z,21.20
2024-01-29T10:25:17.449Z,18.90
2024-01-29T10:27:54.165Z,22.70
2024-01-29T10:30:32.173Z,22.60
2024-01-29T10:33:11.206Z,23.10
2024-01-29T10:35:48.658Z,22.80
2024-01-29T10:38:27.893Z,22.60
2024-01-29T10:41:10.352Z,25.90
2024-01-29T10:43:52.476Z,25.90
2024-01-29T10:46:30.172Z,24.30
2024-01-29T10:49:07.947Z,24.50
2024-01-29T10:51:47.976Z,21.50
2024-01-29T10:54:25.214Z,21.70
2024-01-29T10:57:03.266Z,24.60
2024-01-29T10:59:41.282Z,24.40
2024-01-29T11:02:22.702Z,23.80
2024-01-29T11:04:59.860Z,26.70
2024-01-29T11:07:38.099Z,22.60
2024-01-29T11:10:23.050Z,20.70
2024-01-29T11:13:02.880Z,23.50
2024-01-29T11:15:43.299Z,25.00
2024-01-29T11:18:21.786Z,23.30
2024-01-29T11:21:02.062Z,23.90
2024-01-29T11:23:48.163Z,24.70
2024-01-29T11:26:25.090Z,25.80
2024-01-29T11:29:06.960Z,28.70
2024-01-29T11:31:49.721Z,28.40
2024-01-29T11:34:34.315Z,25.10
2024-01-29T11:37:13.308Z,25.50
2024-01-29T11:39:54.393Z,27.30
2024-01-29T11:42:31.485Z,28.10
2024-01-29T11:45:13.077Z,25.40
2024-01-29T11:47:51.334Z,25.80
2024-01-29T11:50:27.791Z,26.50
2024-01-29T11:53:05.944Z,26.40
2024-01-29T11:55:43.990Z,28.40
2024-01-29T11:58:21.931Z,25.50
2024-01-29T12:00:59.652Z,26.80
2024-01-29T12:03:37.949Z,27.30
2024-01-29T12:06:16.127Z,26.50
2024-01-29T12:08:58.586Z,25.40
2024-01-29T12:11:36.512Z,25.80
2024-01-29T12:14:16.704Z,27.00
2024-01-29T12:16:53.751Z,28.10
2024-01-29T12:19:31.966Z,26.40
2024-01-29T12:22:15.213Z,29.20
2024-01-29T12:24:52.178Z,27.30
2024-01-29T12:27:28.567Z,26.20
2024-01-29T12:30:09.540Z,25.80
2024-01-29T12:32:48.812Z,24.70
2024-01-29T12:35:37.622Z,23.90
2024-01-29T12:38:18.705Z,23.50
2024-01-29T12:41:01.513Z,26.30
2024-01-29T12:43:38.730Z,27.00
2024-01-29T12:46:18.133Z,24.80
2024-01-29T12:48:55.374Z,22.80
2024-01-29T12:51:32.019Z,24.20
2024-01-29T12:54:09.995Z,25.10
2024-01-29T12:56:46.707Z,30.80
2024-01-29T12:59:22.929Z,29.90
2024-01-29T13:02:00.798Z,31.40
2024-01-29T13:04:38.466Z,31.40
2024-01-29T13:07:17.029Z,30.00
2024-01-29T13:09:55.082Z,27.00
2024-01-29T13:12:32.280Z,29.20
2024-01-29T13:15:13.127Z,28.50
2024-01-29T13:17:50.329Z,27.60
2024-01-29T13:20:28.237Z,26.70
2024-01-29T13:23:05.390Z,29.90
2024-01-29T13:25:42.884Z,24.40
2024-01-29T13:28:19.708Z,24.00
2024-01-29T13:30:57.554Z,23.70
2024-01-29T13:33:34.839Z,24.10
2024-01-29T13:36:14.377Z,25.20
2024-01-29T13:38:51.209Z,25.90
2024-01-29T13:41:27.863Z,25.60
2024-01-29T13:44:05.602Z,24.80
2024-01-29T13:46:42.716Z,23.20
2024-01-29T13:49:19.984Z,25.40
2024-01-29T13:51:56.969Z,25.40
2024-01-29T13:54:34.849Z,23.50
2024-01-29T13:57:13.872Z,23.60
2024-01-29T13:59:50.765Z,24.80
2024-01-29T14:02:27.782Z,26.20
2024-01-29T14:05:06.516Z,25.20
2024-01-29T14:07:44.067Z,25.80
2024-01-29T14:10:21.749Z,25.10
2024-01-29T14:12:58.958Z,25.20
2024-01-29T14:15:36.375Z,25.10
2024-01-29T14:18:14.776Z,23.30
2024-01-29T14:20:51.886Z,23.50
2024-01-29T14:23:28.927Z,25.80
2024-01-29T14:26:05.404Z,28.10
2024-01-29T14:28:42.507Z,25.60
2024-01-29T14:31:20.525Z,25.90
2024-01-29T14:33:59.152Z,26.20
2024-01-29T14:36:36.969Z,22.60
2024-01-29T14:39:16.514Z,25.10
2024-01-29T14:41:58.692Z,25.50
2024-01-29T14:44:36.030Z,24.50
2024-01-29T14:47:17.560Z,28.30
2024-01-29T14:49:54.695Z,25.60
2024-01-29T14:52:32.081Z,25.60
2024-01-29T14:55:10.652Z,26.30
2024-01-29T14:57:47.491Z,26.60
2024-01-29T15:00:28.467Z,25.80
2024-01-29T15:03:06.487Z,25.00
2024-01-29T15:05:46.408Z,23.10
2024-01-29T15:08:23.726Z,24.60
2024-01-29T15:11:01.906Z,24.10
2024-01-29T15:13:39.519Z,23.40
2024-01-29T15:16:17.891Z,26.10
2024-01-29T15:18:54.960Z,21.60
2024-01-29T15:21:32.090Z,26.50
2024-01-29T15:24:10.500Z,25.00
2024-01-29T15:26:51.563Z,24.20
2024-01-29T15:29:28.358Z,25.00
2024-01-29T15:32:05.536Z,24.50
2024-01-29T15:34:49.082Z,23.80
2024-01-29T15:37:26.234Z,24.40
2024-01-29T15:40:04.674Z,23.70
2024-01-29T15:42:43.335Z,24.70
2024-01-29T15:45:20.291Z,24.20
2024-01-29T15:48:00.567Z,23.00
2024-01-29T15:50:37.722Z,23.60
2024-01-29T15:53:14.898Z,24.40
2024-01-29T15:55:52.310Z,22.80
2024-01-29T15:58:30.936Z,27.90
2024-01-29T16:01:09.186Z,29.70
2024-01-29T16:03:46.167Z,26.20
2024-01-29T16:06:23.353Z,25.70
2024-01-29T16:09:27.392Z,23.10
2024-01-29T16:12:03.971Z,24.70
2024-01-29T16:14:40.962Z,24.10
2024-01-29T16:17:18.941Z,24.30
2024-01-29T16:19:56.151Z,24.50
2024-01-29T16:22:33.592Z,25.00
2024-01-29T16:25:13.304Z,24.90
2024-01-29T16:27:51.793Z,22.80
2024-01-29T16:30:30.372Z,23.60
2024-01-29T16:33:09.607Z,24.80
2024-01-29T16:35:47.810Z,24.40
2024-01-29T16:38:26.199Z,24.40
2024-01-29T16:41:02.799Z,25.20
2024-01-29T16:43:41.299Z,25.00
2024-01-29T16:46:18.479Z,23.80
2024-01-29T16:48:59.062Z,27.10
2024-01-29T16:51:36.343Z,27.00
2024-01-29T16:54:14.381Z,26.40
2024-01-29T16:56:52.375Z,25.70
2024-01-29T16:59:29.836Z,27.00
2024-01-29T17:02:08.384Z,27.00
2024-01-29T17:04:46.565Z,27.30
2024-01-29T17:07:24.007Z,27.20
2024-01-29T17:10:00.839Z,28.90
2024-01-29T17:12:38.060Z,27.60
2024-01-29T17:15:21.795Z,29.30
2024-01-29T17:17:59.180Z,28.40
2024-01-29T17:20:36.751Z,27.90
2024-01-29T17:23:15.121Z,30.10
2024-01-29T17:25:55.822Z,29.70
2024-01-29T17:28:34.327Z,27.30
2024-01-29T17:31:16.566Z,26.60
2024-01-29T17:33:54.757Z,28.20
2024-01-29T17:36:32.013Z,27.20
2024-01-29T17:39:10.894Z,28.00
2024-01-29T17:41:48.673Z,25.40
2024-01-29T17:44:29.093Z,25.20
2024-01-29T17:47:06.742Z,27.30
2024-01-29T17:49:45.504Z,28.10
2024-01-29T17:52:23.478Z,30.20
2024-01-29T17:55:00.752Z,26.90
2024-01-29T17:57:38.123Z,25.70
2024-01-29T18:00:24.504Z,24.50
2024-01-29T18:03:01.654Z,25.30
2024-01-29T18:05:43.565Z,23.60
2024-01-29T18:08:36.975Z,23.30
2024-01-29T18:11:23.307Z,24.50
2024-01-29T18:14:21.630Z,23.40
2024-01-29T18:17:07.612Z,24.30
2024-01-29T18:19:59.067Z,23.10
2024-01-29T18:22:45.488Z,25.60
2024-01-29T18:25:23.433Z,25.40
2024-01-29T18:28:04.347Z,25.30
2024-01-29T18:30:59.079Z,25.80
2024-01-29T18:33:47.109Z,28.90
2024-01-29T18:36:39.397Z,28.80
2024-01-29T18:39:27.003Z,25.60
2024-01-29T18:42:13.432Z,27.60
2024-01-29T18:44:54.955Z,27.70
2024-01-29T18:47:38.178Z,27.20
2024-01-29T18:50:21.810Z,26.80
2024-01-29T18:53:06.932Z,25.90
2024-01-29T18:55:44.028Z,27.50
2024-01-29T18:58:21.440Z,41.50
2024-01-29T19:00:59.639Z,30.00
2024-01-29T19:03:36.791Z,24.80
2024-01-29T19:06:15.742Z,22.00
2024-01-29T19:08:52.399Z,21.30
2024-01-29T19:11:31.203Z,39.40
2024-01-29T19:14:07.698Z,32.10
2024-01-29T19:16:48.196Z,25.50
2024-01-29T19:19:26.568Z,22.50
2024-01-29T19:22:03.536Z,22.80
2024-01-29T19:24:41.809Z,23.20
2024-01-29T19:27:21.411Z,23.30
2024-01-29T19:29:59.114Z,24.80
2024-01-29T19:32:37.409Z,23.00
2024-01-29T19:35:20.257Z,22.30
2024-01-29T19:37:57.256Z,24.60
2024-01-29T19:40:38.417Z,23.10
2024-01-29T19:43:14.943Z,25.30
2024-01-29T19:45:54.833Z,25.80
2024-01-29T19:48:32.337Z,24.20
2024-01-29T19:51:09.433Z,23.50
2024-01-29T19:53:46.846Z,25.70
2024-01-29T19:56:25.455Z,23.90
2024-01-29T19:59:03.508Z,23.00
2024-01-29T20:01:41.121Z,23.20
2024-01-29T20:04:18.443Z,24.10
2024-01-29T20:06:58.688Z,25.40
2024-01-29T20:09:35.486Z,23.90
2024-01-29T20:12:16.149Z,22.70
2024-01-29T20:14:52.632Z,22.10
2024-01-29T20:17:31.239Z,20.60
2024-01-29T20:20:09.218Z,20.20
2024-01-29T20:22:46.427Z,22.70
2024-01-29T20:25:24.369Z,22.80
2024-01-29T20:28:02.837Z,23.60
2024-01-29T20:30:41.345Z,21.80
2024-01-29T20:33:19.373Z,20.30
2024-01-29T20:35:56.986Z,20.80
2024-01-29T20:38:36.310Z,20.50
2024-01-29T20:41:23.765Z,21.10
2024-01-29T20:44:09.701Z,19.00
2024-01-29T20:46:48.913Z,18.30
2024-01-29T20:49:26.987Z,18.10
2024-01-29T20:52:04.276Z,20.70
2024-01-29T20:54:42.394Z,18.90
2024-01-29T20:57:18.904Z,19.80
2024-01-29T20:59:56.692Z,17.90
2024-01-29T21:02:33.978Z,18.30
2024-01-29T21:05:18.848Z,19.00
2024-01-29T21:07:56.624Z,18.40
2024-01-29T21:10:34.570Z,17.50
2024-01-29T21:13:15.503Z,18.20
2024-01-29T21:15:53.148Z,17.60
2024-01-29T21:18:30.234Z,18.30
2024-01-29T21:21:09.636Z,17.30
2024-01-29T21:23:46.386Z,18.00
2024-01-29T21:26:33.722Z,18.10
2024-01-29T21:29:11.353Z,17.00
2024-01-29T21:31:48.938Z,18.50
2024-01-29T21:34:26.655Z,20.10
2024-01-29T21:37:03.130Z,19.20
2024-01-29T21:39:41.031Z,18.70
2024-01-29T21:42:19.822Z,18.50
2024-01-29T21:44:57.190Z,19.40
2024-01-29T21:47:33.995Z,19.00
2024-01-29T21:50:15.407Z,18.50
2024-01-29T21:52:53.041Z,17.50
2024-01-29T21:55:29.985Z,18.10
2024-01-29T21:58:08.069Z,18.10
2024-01-29T22:00:45.158Z,18.60
2024-01-29T22:03:24.991Z,18.60
2024-01-29T22:06:01.392Z,20.70
2024-01-29T22:08:39.484Z,20.30
2024-01-29T22:11:17.013Z,20.80
2024-01-29T22:13:54.183Z,19.60
2024-01-29T22:16:31.366Z,20.80
2024-01-29T22:19:12.025Z,17.90
2024-01-29T22:21:59.533Z,19.20
2024-01-29T22:24:36.552Z,16.60
2024-01-29T22:27:17.632Z,17.70
2024-01-29T22:29:54.817Z,16.70
2024-01-29T22:32:32.503Z,18.50
2024-01-29T22:35:12.698Z,18.70
2024-01-29T22:37:49.251Z,19.00
2024-01-29T22:40:27.107Z,17.40
2024-01-29T22:43:04.607Z,19.20
2024-01-29T22:45:42.411Z,18.00
2024-01-29T22:48:18.740Z,17.30
2024-01-29T22:50:56.967Z,19.10
2024-01-29T22:53:33.882Z,17.50
2024-01-29T22:56:12.880Z,17.80
2024-01-29T22:58:49.688Z,18.70
2024-01-29T23:01:26.847Z,20.30
2024-01-29T23:04:03.902Z,19.20
2024-01-29T23:06:41.655Z,19.80
2024-01-29T23:09:18.303Z,19.30
2024-01-29T23:11:55.492Z,18.70
2024-01-29T23:14:33.707Z,18.80
2024-01-29T23:17:12.598Z,19.00
2024-01-29T23:19:50.082Z,20.00
2024-01-29T23:22:27.857Z,17.80
2024-01-29T23:25:04.784Z,16.70
2024-01-29T23:27:42.156Z,17.30
2024-01-29T23:30:23.020Z,19.10
2024-01-29T23:33:00.699Z,16.20
2024-01-29T23:35:40.897Z,17.40
2024-01-29T23:38:17.402Z,17.30
2024-01-29T23:40:55.303Z,15.70
2024-01-29T23:43:32.495Z,16.40
2024-01-29T23:46:10.651Z,20.70
2024-01-29T23:48:48.330Z,22.70
2024-01-29T23:51:25.366Z,22.40
2024-01-29T23:54:03.259Z,23.20
2024-01-29T23:56:39.821Z,23.20
2024-01-29T23:59:17.162Z,24.90
